Time;durP1;ratioP1;P1;durP2;ratioP2;P2;SDS_P1;SDS_P2;PMS_P1;PMS_P2;Temp;Humidity;BMP_temperature;BMP_pressure;BME280_temperature;BME280_humidity;BME280_pressure;Samples;Min_cycle;Max_cycle;Signal;HPM_P1;HPM_P2
2022/04/27 09:47:04;;;;;;;8.63;5.97;;;12.60;99.90;;;;;;666595;23;20362;-89
2022/04/27 09:49:32;;;;;;;6.72;5.40;;;12.80;99.90;;;;;;4939663;29;20399;-90
2022/04/27 09:52:00;;;;;;;8.38;5.32;;;12.90;99.90;;;;;;4941442;29;20032;-92
2022/04/27 09:54:30;;;;;;;7.07;5.30;;;13.00;99.90;;;;;;4941723;29;20382;-92
2022/04/27 09:57:00;;;;;;;7.93;5.97;;;13.10;99.90;;;;;;4940371;29;20167;-91
2022/04/27 09:59:30;;;;;;;6.57;5.55;;;13.20;99.90;;;;;;4941246;29;20023;-91
2022/04/27 10:02:43;;;;;;;6.22;5.38;;;13.10;99.90;;;;;;4941184;29;20027;-94
2022/04/27 10:05:24;;;;;;;5.60;4.80;;;13.20;99.90;;;;;;4940911;29;20543;-94
2022/04/27 10:07:51;;;;;;;7.18;5.10;;;13.10;99.90;;;;;;4941180;29;20027;-94
2022/04/27 10:10:17;;;;;;;5.95;5.18;;;13.20;99.90;;;;;;4940172;29;20031;-91
2022/04/27 10:12:43;;;;;;;6.30;5.07;;;13.10;99.90;;;;;;4943010;29;20031;-93
2022/04/27 10:15:09;;;;;;;7.82;5.07;;;13.10;99.90;;;;;;4949990;29;20382;-94
2022/04/27 10:17:39;;;;;;;4.82;4.25;;;13.20;99.90;;;;;;4952927;29;20051;-95
2022/04/27 10:20:36;;;;;;;5.30;4.10;;;13.10;99.90;;;;;;4955857;29;20095;-96
2022/04/27 10:23:24;;;;;;;6.00;4.88;;;13.10;99.90;;;;;;4956438;29;20011;-96
2022/04/27 10:26:12;;;;;;;5.07;4.28;;;13.00;99.90;;;;;;4956216;29;20030;-96
2022/04/27 10:28:59;;;;;;;6.03;4.72;;;13.00;99.90;;;;;;4973776;29;20042;-96
2022/04/27 10:31:43;;;;;;;6.22;4.72;;;12.90;99.90;;;;;;5170301;23;20039;-96
2022/04/27 10:34:20;;;;;;;;;;;12.80;99.90;;;;;;4967156;29;20028;-95
2022/04/27 10:36:52;;;;;;;5.70;4.50;;;12.80;99.90;;;;;;4945553;29;19960;-96
2022/04/27 10:39:23;;;;;;;5.53;4.30;;;12.80;99.90;;;;;;4948630;29;20488;-96
2022/04/27 10:41:55;;;;;;;7.85;4.60;;;12.70;99.90;;;;;;4949084;29;20055;-95
2022/04/27 10:44:44;;;;;;;7.07;4.43;;;12.60;99.90;;;;;;4949584;29;20036;-96
2022/04/27 10:47:20;;;;;;;4.97;4.40;;;12.60;99.90;;;;;;4947041;29;20027;-96
2022/04/27 10:49:51;;;;;;;5.93;4.43;;;12.50;99.90;;;;;;4949009;29;20031;-96
2022/04/27 10:52:23;;;;;;;7.82;4.75;;;12.50;99.90;;;;;;4948549;29;20031;-96
2022/04/27 10:54:49;;;;;;;7.28;4.93;;;12.40;99.90;;;;;;4948253;29;20039;-96
2022/04/27 10:57:15;;;;;;;5.97;4.57;;;12.40;99.90;;;;;;4948261;29;20074;-96
2022/04/27 11:00:05;;;;;;;4.82;4.00;;;12.40;99.90;;;;;;4947963;29;20027;-95
2022/04/27 11:02:39;;;;;;;6.40;4.03;;;12.40;99.90;;;;;;4947508;29;20042;-96
2022/04/27 11:05:11;;;;;;;5.72;4.38;;;12.30;99.90;;;;;;4946871;29;20023;-96
2022/04/27 11:07:43;;;;;;;5.05;4.25;;;12.30;99.90;;;;;;4947817;29;20125;-96
2022/04/27 11:10:21;;;;;;;6.07;4.50;;;12.40;99.90;;;;;;4943314;29;20042;-96
2022/04/27 11:12:52;;;;;;;4.90;4.40;;;12.30;99.90;;;;;;4943672;29;20537;-96
2022/04/27 11:15:25;;;;;;;5.32;4.22;;;12.30;99.90;;;;;;4945157;29;20490;-96
2022/04/27 11:18:08;;;;;;;7.25;4.70;;;12.30;99.90;;;;;;4949744;29;20027;-95
2022/04/27 11:20:43;;;;;;;8.35;4.10;;;12.30;99.90;;;;;;4951915;29;20031;-96
2022/04/27 11:23:21;;;;;;;5.53;4.57;;;12.30;99.90;;;;;;4954986;29;20039;-96
2022/04/27 11:26:18;;;;;;;4.97;4.03;;;12.30;99.90;;;;;;4949708;29;20024;-96
2022/04/27 11:28:45;;;;;;;5.35;4.07;;;12.30;99.90;;;;;;4947095;29;20023;-96
2022/04/27 11:31:14;;;;;;;5.50;4.53;;;12.30;99.90;;;;;;4922722;29;20046;-96
2022/04/27 11:33:40;;;;;;;6.75;4.20;;;12.30;99.90;;;;;;4907481;29;20050;-94
2022/04/27 11:36:34;;;;;;;5.28;4.03;;;12.30;99.90;;;;;;4923016;29;20028;-96
2022/04/27 11:39:00;;;;;;;6.43;4.10;;;12.40;99.90;;;;;;4932412;29;20060;-95
2022/04/27 11:42:12;;;;;;;5.80;4.05;;;12.40;99.90;;;;;;4917305;29;20111;-96
2022/04/27 11:44:40;;;;;;;;;;;12.30;99.90;;;;;;4928139;29;20032;-95
2022/04/27 11:47:30;;;;;;;5.07;4.30;;;12.30;99.90;;;;;;4926093;29;19911;-95
2022/04/27 11:49:58;;;;;;;5.13;4.10;;;12.30;99.90;;;;;;4925823;29;20036;-95
2022/04/27 11:52:32;;;;;;;5.35;3.80;;;12.30;99.90;;;;;;4929341;29;20447;-96
2022/04/27 11:55:08;;;;;;;5.38;4.35;;;12.30;99.90;;;;;;4908873;29;20059;-96
2022/04/27 11:57:43;;;;;;;5.25;3.92;;;12.30;99.90;;;;;;4931608;29;20032;-96
2022/04/27 12:00:34;;;;;;;5.78;4.25;;;12.30;99.90;;;;;;4940529;29;20101;-96
2022/04/27 12:03:57;;;;;;;;;;;;;;;;;;;;;
2022/04/27 12:09:41;;;;;;;7.40;3.83;;;12.30;99.90;;;;;;4860443;29;20045;-96
2022/04/27 12:12:13;;;;;;;5.38;3.80;;;12.40;99.90;;;;;;4935253;29;20432;-94
2022/04/27 12:14:41;;;;;;;4.65;3.53;;;12.40;99.90;;;;;;4934590;29;20027;-96
2022/04/27 12:17:07;;;;;;;4.38;3.75;;;12.40;99.90;;;;;;4932150;29;20035;-96
2022/04/27 12:44:37;;;;;;;3.58;2.60;;;13.30;99.90;;;;;;896221;23;20331;-92
2022/04/27 12:47:08;;;;;;;3.42;2.55;;;13.60;99.90;;;;;;4942947;29;20047;-95
2022/04/27 12:49:35;;;;;;;4.47;2.55;;;14.00;99.90;;;;;;4946082;29;20375;-96
2022/04/27 12:52:29;;;;;;;2.50;2.30;;;14.10;99.90;;;;;;4943545;29;20023;-93
2022/04/27 12:55:09;;;;;;;3.00;2.40;;;14.10;99.90;;;;;;4942072;29;20031;-94
2022/04/27 12:57:50;;;;;;;3.08;2.60;;;14.20;99.90;;;;;;4942463;29;20031;-95
2022/04/27 13:00:20;;;;;;;4.38;2.60;;;14.30;99.90;;;;;;4943866;29;20020;-94
2022/04/27 13:02:46;;;;;;;4.22;2.97;;;14.50;99.90;;;;;;4943572;29;20037;-95
2022/04/27 13:05:12;;;;;;;4.60;2.90;;;14.60;99.90;;;;;;4943944;29;20077;-95
2022/04/27 13:07:40;;;;;;;5.10;2.90;;;14.50;99.90;;;;;;4947313;29;20038;-96
2022/04/27 13:12:51;;;;;;;3.67;2.95;;;14.30;99.90;;;;;;4961694;29;20042;-96
2022/04/27 13:15:17;;;;;;;5.47;2.72;;;14.10;99.90;;;;;;4945769;29;20042;-96
2022/04/27 13:17:46;;;;;;;3.53;2.20;;;14.00;99.90;;;;;;4944861;29;20028;-96
2022/04/27 13:20:12;;;;;;;3.47;2.85;;;13.90;99.90;;;;;;4943506;29;20035;-95
2022/04/27 13:22:39;;;;;;;3.58;2.35;;;13.90;99.90;;;;;;4964183;29;20054;-96
2022/04/27 13:25:06;;;;;;;4.07;2.70;;;14.00;99.90;;;;;;4945263;29;20023;-96
2022/04/27 13:27:32;;;;;;;2.70;2.22;;;14.00;99.90;;;;;;4943034;29;20070;-96
2022/04/27 13:29:58;;;;;;;2.65;2.30;;;14.10;99.90;;;;;;4934210;29;20028;-94
2022/04/27 13:32:24;;;;;;;2.90;2.30;;;14.30;99.90;;;;;;4922746;29;20059;-95
2022/04/27 13:34:50;;;;;;;2.83;2.28;;;14.50;99.90;;;;;;4923776;29;20034;-95
2022/04/27 13:37:16;;;;;;;2.80;2.25;;;14.70;99.90;;;;;;4924527;29;20027;-96
2022/04/27 13:39:42;;;;;;;3.47;2.17;;;14.70;99.90;;;;;;4923737;29;20076;-93
2022/04/27 13:42:08;;;;;;;2.63;2.28;;;14.80;99.90;;;;;;4926676;29;20026;-96
2022/04/27 13:44:34;;;;;;;5.53;2.80;;;14.90;99.90;;;;;;4924249;29;20139;-93
2022/04/27 13:47:00;;;;;;;2.17;1.92;;;14.90;99.90;;;;;;4923295;29;20174;-94
2022/04/27 13:49:26;;;;;;;2.45;2.00;;;14.80;99.90;;;;;;4923839;29;20341;-94
2022/04/27 13:51:54;;;;;;;2.63;2.28;;;14.80;99.90;;;;;;4924280;29;20110;-95
2022/04/27 13:54:20;;;;;;;2.35;1.73;;;14.70;99.90;;;;;;4923421;29;20027;-96
2022/04/27 13:56:47;;;;;;;2.53;2.10;;;14.60;99.90;;;;;;4926642;29;20024;-96
2022/04/27 13:59:13;;;;;;;3.38;2.80;;;14.60;99.90;;;;;;4924916;29;20106;-95
2022/04/27 14:01:44;;;;;;;2.63;2.08;;;14.40;99.90;;;;;;4925776;29;20051;-94
2022/04/27 14:04:09;;;;;;;2.30;2.10;;;14.20;99.90;;;;;;4923805;29;20495;-95
2022/04/27 14:06:35;;;;;;;2.75;2.10;;;14.20;99.90;;;;;;4924745;29;20055;-96
2022/04/27 14:09:01;;;;;;;2.53;2.13;;;14.00;99.90;;;;;;4924991;29;20024;-93
2022/04/27 14:14:14;;;;;;;3.30;2.10;;;13.80;99.90;;;;;;4945453;29;20063;-96
2022/04/27 14:19:24;;;;;;;2.80;2.15;;;13.60;99.90;;;;;;4949380;29;20035;-96
2022/04/27 14:21:53;;;;;;;2.63;2.28;;;13.50;99.90;;;;;;4930149;29;20024;-95
2022/04/27 14:24:19;;;;;;;3.63;2.20;;;13.50;99.90;;;;;;4922510;29;20079;-95
2022/04/27 14:26:48;;;;;;;2.47;2.20;;;13.50;99.90;;;;;;4924246;29;20024;-96
2022/04/27 14:33:02;;;;;;;3.22;2.10;;;13.40;99.90;;;;;;4913799;29;20034;-96
2022/04/27 16:40:14;;;;;;;4.18;3.17;;;13.20;99.90;;;;;;1048424;23;20339;-94
2022/04/27 16:42:40;;;;;;;4.57;2.78;;;13.20;99.90;;;;;;4920345;29;20100;-96
2022/04/27 16:45:06;;;;;;;3.20;2.80;;;13.20;99.90;;;;;;4922082;29;20040;-95
2022/04/27 16:47:32;;;;;;;3.05;2.40;;;13.10;99.90;;;;;;4922030;29;20060;-95
2022/04/27 16:49:58;;;;;;;5.22;2.80;;;13.10;99.90;;;;;;4922217;29;20025;-96
2022/04/27 16:52:23;;;;;;;3.30;2.90;;;13.10;99.90;;;;;;4920405;29;20052;-95
2022/04/27 16:54:49;;;;;;;4.18;3.03;;;13.10;99.90;;;;;;4921452;29;20028;-96
2022/04/27 16:57:16;;;;;;;3.10;2.67;;;13.10;99.90;;;;;;4922616;29;20373;-95
2022/04/27 16:59:42;;;;;;;3.60;2.95;;;13.10;99.90;;;;;;4920613;29;20051;-95
2022/04/27 17:02:08;;;;;;;3.78;2.75;;;13.10;99.90;;;;;;4920536;29;20388;-96
2022/04/27 17:04:34;;;;;;;3.15;2.78;;;13.00;99.90;;;;;;4920067;29;20119;-95
2022/04/27 17:07:00;;;;;;;3.70;2.83;;;13.00;99.90;;;;;;4919964;29;20111;-96
2022/04/27 17:09:26;;;;;;;3.47;2.78;;;13.00;99.90;;;;;;4920525;29;20627;-95
2022/04/27 17:11:51;;;;;;;3.90;2.92;;;13.00;99.90;;;;;;4920191;29;20515;-95
2022/04/27 17:14:19;;;;;;;3.40;2.97;;;13.00;99.90;;;;;;4921167;29;20581;-96
2022/04/27 17:16:49;;;;;;;3.67;2.85;;;13.00;99.90;;;;;;4919787;29;20115;-94
2022/04/27 17:19:16;;;;;;;3.47;2.80;;;13.00;99.90;;;;;;4919403;29;20050;-95
2022/04/27 17:21:43;;;;;;;3.58;3.05;;;13.00;99.90;;;;;;4919783;29;20035;-95
2022/04/27 17:24:09;;;;;;;6.28;4.75;;;13.00;99.90;;;;;;4919664;29;20024;-96
2022/04/27 17:29:18;;;;;;;3.53;3.13;;;13.00;99.90;;;;;;4919406;29;20105;-95
2022/04/27 17:31:45;;;;;;;3.67;3.20;;;13.00;99.90;;;;;;4903282;29;20033;-96
2022/04/27 17:34:12;;;;;;;3.60;3.30;;;12.90;99.90;;;;;;4901752;29;20381;-95
2022/04/27 17:36:39;;;;;;;6.20;3.50;;;13.00;99.90;;;;;;4900678;29;20080;-96
2022/04/27 17:39:06;;;;;;;3.63;3.03;;;13.00;99.90;;;;;;4900427;29;20036;-94
2022/04/27 17:41:31;;;;;;;4.35;3.65;;;12.90;99.90;;;;;;4909634;29;20063;-93
2022/04/27 17:43:57;;;;;;;4.22;3.30;;;13.00;99.90;;;;;;4918698;29;20032;-93
2022/04/27 17:46:24;;;;;;;4.45;3.30;;;13.00;99.90;;;;;;4919376;29;20083;-95
2022/04/27 17:48:50;;;;;;;5.47;3.28;;;13.00;99.90;;;;;;4921526;29;20491;-96
2022/04/27 17:51:16;;;;;;;3.70;3.08;;;13.00;99.90;;;;;;4919524;29;20095;-95
2022/04/27 17:53:42;;;;;;;4.53;3.40;;;13.00;99.90;;;;;;4919668;29;20035;-95
2022/04/27 17:56:08;;;;;;;4.60;3.60;;;12.90;99.90;;;;;;4919569;29;20031;-95
2022/04/27 17:58:35;;;;;;;4.85;3.33;;;12.90;99.90;;;;;;4919149;29;20124;-95
2022/04/27 18:01:00;;;;;;;3.67;3.08;;;12.90;99.90;;;;;;4919217;29;20047;-96
2022/04/27 18:03:26;;;;;;;4.38;3.30;;;12.90;99.90;;;;;;4919189;29;20024;-95
2022/04/27 18:05:52;;;;;;;3.80;3.28;;;12.90;99.90;;;;;;4919902;29;20131;-95
2022/04/27 18:08:18;;;;;;;3.03;2.67;;;12.90;99.90;;;;;;4919003;29;20479;-96
2022/04/27 18:10:47;;;;;;;3.80;2.95;;;12.90;99.90;;;;;;4918368;29;20055;-96
2022/04/27 18:13:13;;;;;;;3.70;3.08;;;12.90;99.90;;;;;;4919549;29;20140;-94
2022/04/27 18:15:48;;;;;;;3.38;3.05;;;12.90;99.90;;;;;;4918714;29;20091;-96
2022/04/27 18:18:17;;;;;;;3.55;3.10;;;12.90;99.90;;;;;;4919369;29;20493;-95
2022/04/27 18:20:44;;;;;;;3.97;3.28;;;12.90;99.90;;;;;;4918995;29;20488;-94
2022/04/27 18:23:10;;;;;;;3.17;2.78;;;12.90;99.90;;;;;;4919011;29;20028;-95
2022/04/27 18:25:35;;;;;;;3.20;2.90;;;12.90;99.90;;;;;;4919047;29;20080;-96
2022/04/27 18:28:03;;;;;;;4.00;2.95;;;12.90;99.90;;;;;;4919162;29;20480;-96
2022/04/27 18:30:30;;;;;;;3.45;3.03;;;12.90;99.90;;;;;;4919972;29;20580;-96
2022/04/27 18:32:57;;;;;;;4.13;3.10;;;12.90;99.90;;;;;;4919210;29;20415;-95
2022/04/27 18:35:26;;;;;;;3.53;2.92;;;12.90;99.90;;;;;;4919167;29;20456;-95
2022/04/27 18:37:53;;;;;;;3.30;3.00;;;12.90;99.90;;;;;;4918775;29;20476;-94
2022/04/27 18:40:19;;;;;;;3.75;2.90;;;12.90;99.90;;;;;;4919995;29;20029;-95
2022/04/27 18:42:45;;;;;;;3.65;3.25;;;12.90;99.90;;;;;;4922883;29;20031;-96
2022/04/27 18:50:40;;;;;;;4.70;3.40;;;12.80;99.90;;;;;;4938978;29;20165;-95
2022/04/27 18:53:06;;;;;;;3.53;3.15;;;12.90;99.90;;;;;;4921718;29;20403;-96
2022/04/27 18:55:32;;;;;;;4.38;3.92;;;12.90;99.90;;;;;;4922229;29;20027;-96
2022/04/27 18:57:59;;;;;;;5.03;4.32;;;12.80;99.90;;;;;;4922893;29;20051;-96
2022/04/27 19:00:28;;;;;;;5.80;4.30;;;12.80;99.90;;;;;;4922773;29;20028;-95
2022/04/27 19:02:57;;;;;;;6.82;4.85;;;12.80;99.90;;;;;;4922977;29;20030;-95
2022/04/27 19:05:23;;;;;;;7.30;4.43;;;12.80;99.90;;;;;;4923845;29;20500;-96
2022/04/27 19:07:49;;;;;;;5.07;4.15;;;12.80;99.90;;;;;;4921919;29;20030;-96
2022/04/27 19:10:15;;;;;;;4.65;3.60;;;12.80;99.90;;;;;;4921732;29;20031;-96
2022/04/27 19:12:41;;;;;;;4.90;3.88;;;12.80;99.90;;;;;;4922091;29;20039;-95
2022/04/27 19:15:08;;;;;;;4.15;3.58;;;12.80;99.90;;;;;;4922682;29;20381;-96
2022/04/27 19:17:34;;;;;;;5.00;3.80;;;12.80;99.90;;;;;;4922108;29;20078;-95
2022/04/27 19:20:00;;;;;;;8.15;4.28;;;12.80;99.90;;;;;;4922648;29;20428;-96
2022/04/27 19:22:26;;;;;;;5.05;4.18;;;12.80;99.90;;;;;;4921964;29;20368;-96
2022/04/27 19:24:53;;;;;;;5.88;4.13;;;12.70;99.90;;;;;;4921144;29;20383;-96
2022/04/27 19:27:19;;;;;;;5.80;4.10;;;12.80;99.90;;;;;;4920840;29;20143;-96
2022/04/27 19:29:45;;;;;;;6.47;4.15;;;12.80;99.90;;;;;;4920749;29;20058;-96
2022/04/27 19:32:12;;;;;;;7.22;3.92;;;12.70;99.90;;;;;;4920976;29;20031;-95
2022/04/27 19:34:38;;;;;;;4.97;3.83;;;12.70;99.90;;;;;;4920753;29;20468;-96
2022/04/27 19:37:10;;;;;;;5.82;4.57;;;12.80;99.90;;;;;;4921633;29;20032;-95
2022/04/27 19:39:35;;;;;;;4.47;4.05;;;12.70;99.90;;;;;;4921522;29;20124;-96
2022/04/27 19:42:02;;;;;;;5.28;4.07;;;12.70;99.90;;;;;;4921013;29;20052;-96
2022/04/27 19:44:28;;;;;;;5.75;3.92;;;12.70;99.90;;;;;;4921895;29;20055;-96
2022/04/27 19:46:53;;;;;;;7.38;3.95;;;12.70;99.90;;;;;;4920991;29;20028;-96
2022/04/27 19:49:19;;;;;;;4.57;3.90;;;12.70;99.90;;;;;;4921581;29;20020;-96
2022/04/27 19:51:47;;;;;;;9.25;4.40;;;12.70;99.90;;;;;;4921093;29;20126;-96
2022/04/27 19:54:13;;;;;;;9.57;4.35;;;12.70;99.90;;;;;;4921122;29;20032;-96
2022/04/27 19:56:39;;;;;;;5.90;4.10;;;12.70;99.90;;;;;;4921912;29;20123;-96
2022/04/27 19:59:05;;;;;;;5.38;3.92;;;12.70;99.90;;;;;;4920646;29;20034;-96
2022/04/27 20:01:31;;;;;;;5.03;4.18;;;12.70;99.90;;;;;;4920552;29;20538;-95
2022/04/27 20:03:58;;;;;;;4.82;3.83;;;12.70;99.90;;;;;;4921292;29;20028;-96
2022/04/27 20:06:24;;;;;;;6.07;4.30;;;12.70;99.90;;;;;;4921096;29;20460;-95
2022/04/27 20:08:51;;;;;;;5.82;4.53;;;12.70;99.90;;;;;;4921721;29;20024;-96
2022/04/27 20:11:18;;;;;;;6.63;4.43;;;12.70;99.90;;;;;;4921706;29;20031;-96
2022/04/27 20:13:44;;;;;;;6.95;5.28;;;12.70;99.90;;;;;;4920612;29;20059;-96
2022/04/27 20:16:18;;;;;;;6.82;5.07;;;12.60;99.90;;;;;;4921723;29;20034;-96
2022/04/27 20:18:47;;;;;;;7.50;5.18;;;12.60;99.90;;;;;;4922382;29;20479;-96
2022/04/27 20:21:15;;;;;;;7.10;5.07;;;12.70;99.90;;;;;;4925155;29;20392;-96
2022/04/27 20:23:42;;;;;;;5.53;4.78;;;12.60;99.90;;;;;;4925460;29;20119;-96
2022/04/27 20:26:08;;;;;;;6.93;4.72;;;12.60;99.90;;;;;;4924550;29;20454;-96
2022/04/27 20:28:37;;;;;;;5.32;4.20;;;12.60;99.90;;;;;;4925100;29;20055;-95
2022/04/27 20:31:03;;;;;;;7.68;4.28;;;12.60;99.90;;;;;;4925085;29;20038;-95
2022/04/27 20:33:29;;;;;;;6.43;4.53;;;12.60;99.90;;;;;;4925953;29;20032;-96
2022/04/27 20:35:55;;;;;;;7.68;4.60;;;12.60;99.90;;;;;;4927490;29;20059;-96
2022/04/27 20:38:22;;;;;;;7.75;4.45;;;12.60;99.90;;;;;;4925715;29;20098;-96
2022/04/27 20:40:49;;;;;;;5.90;4.78;;;12.60;99.90;;;;;;4924103;29;20546;-96
2022/04/27 20:43:15;;;;;;;6.38;5.10;;;12.60;99.90;;;;;;4925079;29;20032;-96
2022/04/27 20:45:41;;;;;;;8.25;4.40;;;12.60;99.90;;;;;;4925521;29;20027;-96
2022/04/27 20:48:12;;;;;;;5.05;4.50;;;12.60;99.90;;;;;;4924832;29;20031;-96
2022/04/27 20:50:38;;;;;;;7.07;4.72;;;12.60;99.90;;;;;;4924524;29;20083;-96
2022/04/27 20:53:04;;;;;;;8.55;4.57;;;12.60;99.90;;;;;;4924807;29;20031;-96
2022/04/27 20:55:30;;;;;;;6.75;4.57;;;12.50;99.90;;;;;;4924751;29;20028;-96
2022/04/27 20:57:59;;;;;;;6.45;4.43;;;12.50;99.90;;;;;;4925005;29;20074;-96
2022/04/27 21:00:26;;;;;;;8.35;5.55;;;12.50;99.90;;;;;;4924460;29;20155;-96
2022/04/27 21:02:55;;;;;;;10.57;6.30;;;12.60;99.90;;;;;;4923770;29;20032;-96
2022/04/27 21:05:20;;;;;;;8.05;5.55;;;12.60;99.90;;;;;;4923271;29;20432;-95
2022/04/27 21:07:46;;;;;;;8.88;6.30;;;12.50;99.90;;;;;;4923388;29;20122;-96
2022/04/27 21:10:13;;;;;;;8.60;6.55;;;12.50;99.90;;;;;;4922895;29;20391;-96
2022/04/27 21:12:39;;;;;;;9.30;6.38;;;12.50;99.90;;;;;;4923994;29;20028;-96
2022/04/27 21:15:06;;;;;;;7.85;5.53;;;12.50;99.90;;;;;;4924528;29;20031;-96
2022/04/27 21:17:32;;;;;;;8.27;5.97;;;12.50;99.90;;;;;;4924044;29;20494;-96
2022/04/27 21:19:58;;;;;;;8.13;5.80;;;12.50;99.90;;;;;;4924437;29;20118;-95
2022/04/27 21:22:24;;;;;;;8.15;5.47;;;12.50;99.90;;;;;;4926775;29;20091;-96
2022/04/27 21:24:50;;;;;;;7.38;5.40;;;12.50;99.90;;;;;;4931397;29;20076;-96
2022/04/27 21:27:17;;;;;;;9.02;5.38;;;12.50;99.90;;;;;;4935414;29;20023;-96
2022/04/27 21:29:44;;;;;;;7.72;5.40;;;12.40;99.90;;;;;;4931085;29;20031;-96
2022/04/27 21:32:10;;;;;;;8.85;5.28;;;12.50;99.90;;;;;;4927290;29;20019;-96
2022/04/27 21:34:36;;;;;;;7.15;5.22;;;12.50;99.90;;;;;;4928579;29;20031;-96
2022/04/27 21:37:02;;;;;;;8.13;5.28;;;12.40;99.90;;;;;;4937422;29;20035;-96
2022/04/27 21:39:28;;;;;;;6.97;4.78;;;12.40;99.90;;;;;;4931595;29;20039;-96
2022/04/27 21:41:56;;;;;;;6.65;5.00;;;12.40;99.90;;;;;;4933737;29;20058;-96
2022/04/27 21:44:27;;;;;;;5.88;4.65;;;12.40;99.90;;;;;;4916591;29;20028;-96
2022/04/27 21:47:03;;;;;;;9.05;4.22;;;12.30;99.90;;;;;;4935601;29;20020;-96
2022/04/27 21:49:29;;;;;;;5.15;4.28;;;12.40;99.90;;;;;;4919562;29;20033;-96
2022/04/27 21:52:07;;;;;;;5.40;4.55;;;12.40;99.90;;;;;;4937789;29;20060;-96
2022/04/27 21:54:34;;;;;;;5.78;4.30;;;12.40;99.90;;;;;;4919546;29;20072;-96
2022/04/27 21:57:06;;;;;;;7.07;4.80;;;12.40;99.90;;;;;;4932514;29;20492;-96
2022/04/27 21:59:32;;;;;;;6.45;4.57;;;12.40;99.90;;;;;;4936906;29;20051;-96
2022/04/27 22:01:58;;;;;;;8.15;4.80;;;12.30;99.90;;;;;;4911932;29;20024;-95
2022/04/27 22:04:24;;;;;;;7.45;4.43;;;12.30;99.90;;;;;;4928695;29;20036;-96
2022/04/27 22:06:54;;;;;;;7.13;4.63;;;12.30;99.90;;;;;;4907951;29;20029;-96
2022/04/27 22:09:26;;;;;;;5.63;4.70;;;12.30;99.90;;;;;;4935411;29;20028;-96
2022/04/27 22:12:52;;;;;;;5.35;4.05;;;12.30;99.90;;;;;;4940339;29;20008;-95
2022/04/27 22:15:58;;;;;;;5.82;4.60;;;12.30;99.90;;;;;;4898606;29;20614;-96
2022/04/27 22:21:51;;;;;;;7.95;4.53;;;12.30;99.90;;;;;;4909988;29;20107;-96
2022/04/27 22:24:42;;;;;;;5.47;4.25;;;12.30;99.90;;;;;;4901109;29;20053;-96
2022/04/27 22:27:13;;;;;;;5.07;4.00;;;12.30;99.90;;;;;;4917473;29;20033;-96
2022/04/27 22:29:40;;;;;;;6.88;4.13;;;12.30;99.90;;;;;;4917685;29;20037;-95
2022/04/27 22:32:21;;;;;;;5.80;4.05;;;12.30;99.90;;;;;;4914629;29;20028;-96
2022/04/27 22:34:49;;;;;;;4.88;3.85;;;12.20;99.90;;;;;;4884909;29;20054;-96
2022/04/27 22:37:25;;;;;;;5.53;3.65;;;12.20;99.90;;;;;;4903111;29;20473;-96
2022/04/27 22:40:10;;;;;;;5.70;4.00;;;12.20;99.90;;;;;;4918782;29;20025;-96
2022/04/27 22:43:26;;;;;;;7.68;3.88;;;12.20;99.90;;;;;;4887200;29;20094;-96
2022/04/27 22:49:25;;;;;;;5.38;3.58;;;12.20;99.90;;;;;;4939647;29;20046;-96
2022/04/27 22:55:18;;;;;;;3.80;3.25;;;12.20;99.90;;;;;;4936357;29;20544;-95
2022/04/27 22:58:02;;;;;;;4.68;3.75;;;12.20;99.90;;;;;;4921860;29;20032;-96
2022/04/27 23:00:58;;;;;;;5.75;3.90;;;12.20;99.90;;;;;;4909260;29;20032;-96
2022/04/27 23:03:26;;;;;;;4.30;3.65;;;12.20;99.90;;;;;;4889586;29;20028;-96
2022/04/27 23:05:59;;;;;;;10.18;3.50;;;12.10;99.90;;;;;;4934958;29;20036;-95
2022/04/27 23:51:45;;;;;;;5.53;3.58;;;11.90;99.90;;;;;;1506702;23;20394;-96
2022/04/27 23:54:20;;;;;;;8.07;3.92;;;12.00;99.90;;;;;;4973850;28;20055;-96
2022/04/27 23:56:47;;;;;;;5.25;3.83;;;12.00;99.90;;;;;;4946989;29;20035;-95
2022/04/27 23:59:13;;;;;;;6.63;4.03;;;11.90;99.90;;;;;;4961046;29;20091;-95
